Time,TemperatureF,DewpointF,PressureIn,WindDirection,WindDirectionDegrees,WindSpeedMPH,WindSpeedGustMPH,Humidity,HourlyPrecipIn,Conditions,Clouds,dailyrainin,SolarRadiationWatts/m^2,SoftwareType,DateUTC
2013-01-17 00:04:00,72.0,70.0,30.04,East,101,2.0,-999.0,92,-99.99,,,0.00,0,weatherlink.com 1.10,2013-01-17 05:04:00,
2013-01-17 00:19:00,71.6,69.0,30.04,ENE,67,0.0,-999.0,91,-99.99,,,0.00,0,weatherlink.com 1.10,2013-01-17 05:19:00,
2013-01-17 00:34:00,71.4,69.0,30.03,ENE,67,0.0,-999.0,92,-99.99,,,0.00,0,weatherlink.com 1.10,2013-01-17 05:34:00,
2013-01-17 00:49:00,71.3,69.0,30.03,ENE,67,0.0,-999.0,92,-99.99,,,0.00,0,weatherlink.com 1.10,2013-01-17 05:49:00,
2013-01-17 01:04:00,71.2,69.0,30.03,ENE,67,0.0,-999.0,92,-99.99,,,0.00,0,weatherlink.com 1.10,2013-01-17 06:04:00,
2013-01-17 01:19:00,71.1,69.0,30.03,ENE,67,0.0,-999.0,92,-99.99,,,0.00,0,weatherlink.com 1.10,2013-01-17 06:19:00,
2013-01-17 01:34:00,71.0,69.0,30.03,ENE,67,0.0,-999.0,92,-99.99,,,0.00,0,weatherlink.com 1.10,2013-01-17 06:34:00,
2013-01-17 01:49:00,70.7,68.0,30.03,ENE,67,0.0,-999.0,92,-99.99,,,0.00,0,weatherlink.com 1.10,2013-01-17 06:49:00,
2013-01-17 02:04:00,70.5,68.0,30.03,ENE,67,0.0,-999.0,92,-99.99,,,0.00,0,weatherlink.com 1.10,2013-01-17 07:04:00,
2013-01-17 02:19:00,70.3,68.0,30.03,ENE,67,0.0,-999.0,92,-99.99,,,0.00,0,weatherlink.com 1.10,2013-01-17 07:19:00,
2013-01-17 02:34:00,69.8,67.0,30.03,ENE,67,0.0,-999.0,92,-99.99,,,0.00,0,weatherlink.com 1.10,2013-01-17 07:34:00,
2013-01-17 02:49:00,69.5,67.0,30.03,ENE,67,0.0,-999.0,92,-99.99,,,0.00,0,weatherlink.com 1.10,2013-01-17 07:49:00,
2013-01-17 03:04:00,69.6,67.0,30.03,ENE,67,0.0,-999.0,92,-99.99,,,0.01,0,weatherlink.com 1.10,2013-01-17 08:04:00,
2013-01-17 03:19:00,69.8,67.0,30.02,ENE,67,0.0,-999.0,92,-99.99,,,0.01,0,weatherlink.com 1.10,2013-01-17 08:19:00,
2013-01-17 03:34:00,69.7,67.0,30.02,ENE,67,0.0,-999.0,92,-99.99,,,0.01,0,weatherlink.com 1.10,2013-01-17 08:34:00,
2013-01-17 03:49:00,69.6,67.0,30.02,ENE,67,0.0,-999.0,92,-99.99,,,0.01,0,weatherlink.com 1.10,2013-01-17 08:49:00,
2013-01-17 04:04:00,69.3,67.0,30.02,ENE,67,0.0,-999.0,93,-99.99,,,0.01,0,weatherlink.com 1.10,2013-01-17 09:04:00,
2013-01-17 04:19:00,69.0,67.0,30.02,ENE,67,0.0,-999.0,92,-99.99,,,0.01,0,weatherlink.com 1.10,2013-01-17 09:19:00,
2013-01-17 04:34:00,68.8,67.0,30.02,ENE,67,0.0,-999.0,93,-99.99,,,0.01,0,weatherlink.com 1.10,2013-01-17 09:34:00,
2013-01-17 04:49:00,68.8,67.0,30.02,ENE,67,0.0,-999.0,93,-99.99,,,0.01,0,weatherlink.com 1.10,2013-01-17 09:49:00,
2013-01-17 05:04:00,68.5,67.0,30.02,ENE,67,0.0,-999.0,93,-99.99,,,0.01,0,weatherlink.com 1.10,2013-01-17 10:04:00,
2013-01-17 05:19:00,68.1,66.0,30.03,ENE,67,0.0,-999.0,93,-99.99,,,0.01,0,weatherlink.com 1.10,2013-01-17 10:19:00,
2013-01-17 05:34:00,67.7,66.0,30.03,ENE,67,0.0,-999.0,93,-99.99,,,0.02,0,weatherlink.com 1.10,2013-01-17 10:34:00,
2013-01-17 05:49:00,67.5,66.0,30.03,ENE,67,0.0,-999.0,93,-99.99,,,0.02,0,weatherlink.com 1.10,2013-01-17 10:49:00,
2013-01-17 06:04:00,67.2,65.0,30.03,ENE,67,0.0,-999.0,93,-99.99,,,0.02,0,weatherlink.com 1.10,2013-01-17 11:04:00,
2013-01-17 06:19:00,67.2,65.0,30.03,ENE,67,0.0,-999.0,93,-99.99,,,0.02,0,weatherlink.com 1.10,2013-01-17 11:19:00,
2013-01-17 06:34:00,67.2,65.0,30.04,ENE,67,0.0,-999.0,93,-99.99,,,0.02,0,weatherlink.com 1.10,2013-01-17 11:34:00,
2013-01-17 06:50:00,67.0,65.0,30.04,ENE,67,0.0,-999.0,93,-99.99,,,0.02,0,weatherlink.com 1.10,2013-01-17 11:50:00,
2013-01-17 07:05:00,67.1,65.0,30.05,ENE,67,0.0,-999.0,93,-99.99,,,0.02,0,weatherlink.com 1.10,2013-01-17 12:05:00,
2013-01-17 07:20:00,67.2,66.0,30.05,ENE,67,0.0,-999.0,94,-99.99,,,0.02,7,weatherlink.com 1.10,2013-01-17 12:20:00,
2013-01-17 07:35:00,67.1,65.0,30.05,ENE,67,0.0,-999.0,93,-99.99,,,0.02,19,weatherlink.com 1.10,2013-01-17 12:35:00,
2013-01-17 07:50:00,67.4,66.0,30.05,ENE,67,0.0,-999.0,94,-99.99,,,0.02,18,weatherlink.com 1.10,2013-01-17 12:50:00,
2013-01-17 08:05:00,67.8,66.0,30.06,ENE,67,0.0,-999.0,94,-99.99,,,0.02,21,weatherlink.com 1.10,2013-01-17 13:05:00,
2013-01-17 08:20:00,68.0,66.0,30.06,ENE,67,0.0,-999.0,94,-99.99,,,0.02,26,weatherlink.com 1.10,2013-01-17 13:20:00,
2013-01-17 08:35:00,70.3,69.0,30.07,ENE,67,0.0,-999.0,95,-99.99,,,0.02,213,weatherlink.com 1.10,2013-01-17 13:35:00,
2013-01-17 08:50:00,72.0,71.0,30.07,ENE,67,0.0,-999.0,95,-99.99,,,0.02,257,weatherlink.com 1.10,2013-01-17 13:50:00,
2013-01-17 09:05:00,73.5,72.0,30.07,ENE,67,0.0,-999.0,94,-99.99,,,0.02,287,weatherlink.com 1.10,2013-01-17 14:05:00,
2013-01-17 09:20:00,75.3,73.0,30.08,ENE,63,0.0,-999.0,91,-99.99,,,0.02,369,weatherlink.com 1.10,2013-01-17 14:20:00,
2013-01-17 09:35:00,75.0,72.0,30.08,ENE,65,0.0,-999.0,89,-99.99,,,0.02,113,weatherlink.com 1.10,2013-01-17 14:35:00,
2013-01-17 09:50:00,76.1,72.0,30.08,ENE,64,0.0,-999.0,88,-99.99,,,0.02,538,weatherlink.com 1.10,2013-01-17 14:50:00,
2013-01-17 10:05:00,78.2,72.0,30.08,SE,124,0.0,-999.0,81,-99.99,,,0.02,489,weatherlink.com 1.10,2013-01-17 15:05:00,
2013-01-17 10:20:00,77.4,71.0,30.08,ESE,115,0.0,-999.0,81,-99.99,,,0.02,292,weatherlink.com 1.10,2013-01-17 15:20:00,
2013-01-17 10:35:00,79.4,72.0,30.07,East,92,0.0,-999.0,78,-99.99,,,0.02,633,weatherlink.com 1.10,2013-01-17 15:35:00,
2013-01-17 10:50:00,80.5,72.0,30.07,SSW,194,0.0,-999.0,76,-99.99,,,0.02,708,weatherlink.com 1.10,2013-01-17 15:50:00,
2013-01-17 11:05:00,78.4,70.0,30.06,South,183,0.0,-999.0,76,-99.99,,,0.02,204,weatherlink.com 1.10,2013-01-17 16:05:00,
2013-01-17 11:20:00,78.1,70.0,30.06,East,94,0.0,-999.0,76,-99.99,,,0.02,246,weatherlink.com 1.10,2013-01-17 16:20:00,
2013-01-17 11:35:00,78.8,71.0,30.05,ESE,115,0.0,-999.0,77,-99.99,,,0.02,341,weatherlink.com 1.10,2013-01-17 16:35:00,
2013-01-17 11:50:00,78.8,71.0,30.05,South,175,0.0,-999.0,77,-99.99,,,0.02,336,weatherlink.com 1.10,2013-01-17 16:50:00,
2013-01-17 12:05:00,79.1,72.0,30.03,ESE,105,0.0,-999.0,78,-99.99,,,0.02,322,weatherlink.com 1.10,2013-01-17 17:05:00,
2013-01-17 12:20:00,79.0,72.0,30.02,ESE,109,0.0,-999.0,79,-99.99,,,0.02,209,weatherlink.com 1.10,2013-01-17 17:20:00,
2013-01-17 12:35:00,78.3,71.0,30.02,SE,127,0.0,-999.0,79,-99.99,,,0.02,153,weatherlink.com 1.10,2013-01-17 17:35:00,
2013-01-17 12:50:00,76.9,70.0,30.02,West,263,1.0,-999.0,78,-99.99,,,0.02,128,weatherlink.com 1.10,2013-01-17 17:50:00,
2013-01-17 13:05:00,72.8,68.0,30.02,WSW,247,6.0,-999.0,86,-99.99,,,0.02,116,weatherlink.com 1.10,2013-01-17 18:05:00,
2013-01-17 13:20:00,71.2,68.0,30.02,WSW,237,0.0,-999.0,90,-99.99,,,0.03,185,weatherlink.com 1.10,2013-01-17 18:20:00,
2013-01-17 13:35:00,71.0,68.0,30.01,SW,227,0.0,-999.0,91,-99.99,,,0.04,116,weatherlink.com 1.10,2013-01-17 18:35:00,
2013-01-17 13:50:00,70.7,69.0,30.01,WSW,243,0.0,-999.0,93,-99.99,,,0.04,227,weatherlink.com 1.10,2013-01-17 18:50:00,
2013-01-17 14:05:00,71.0,69.0,30.00,WSW,244,0.0,-999.0,93,-99.99,,,0.05,178,weatherlink.com 1.10,2013-01-17 19:05:00,
2013-01-17 14:20:00,71.2,69.0,29.98,East,96,0.0,-999.0,93,-99.99,,,0.05,167,weatherlink.com 1.10,2013-01-17 19:20:00,
2013-01-17 14:35:00,72.3,70.0,29.98,SE,134,0.0,-999.0,93,-99.99,,,0.05,169,weatherlink.com 1.10,2013-01-17 19:35:00,
2013-01-17 14:50:00,72.3,70.0,29.99,SSW,198,0.0,-999.0,92,-99.99,,,0.05,109,weatherlink.com 1.10,2013-01-17 19:50:00,
2013-01-17 15:05:00,73.3,71.0,29.98,SSW,198,0.0,-999.0,91,-99.99,,,0.05,179,weatherlink.com 1.10,2013-01-17 20:05:00,
2013-01-17 15:23:00,73.8,71.0,29.98,SSW,198,0.0,-999.0,90,-99.99,,,0.05,163,weatherlink.com 1.10,2013-01-17 20:23:00,
2013-01-17 15:35:00,74.0,71.0,29.98,SSW,198,0.0,-999.0,89,-99.99,,,0.05,195,weatherlink.com 1.10,2013-01-17 20:35:00,
2013-01-17 15:51:00,74.7,71.0,29.99,SSW,198,0.0,-999.0,87,-99.99,,,0.05,172,weatherlink.com 1.10,2013-01-17 20:51:00,
2013-01-17 16:06:00,75.5,71.0,29.98,SSW,198,0.0,-999.0,86,-99.99,,,0.05,199,weatherlink.com 1.10,2013-01-17 21:06:00,
2013-01-17 16:21:00,75.6,71.0,29.98,SSW,198,0.0,-999.0,85,-99.99,,,0.05,207,weatherlink.com 1.10,2013-01-17 21:21:00,
2013-01-17 16:36:00,75.7,70.0,29.98,SSW,203,0.0,-999.0,83,-99.99,,,0.05,98,weatherlink.com 1.10,2013-01-17 21:36:00,
2013-01-17 16:51:00,75.0,70.0,29.98,SSW,203,0.0,-999.0,85,-99.99,,,0.05,97,weatherlink.com 1.10,2013-01-17 21:51:00,
2013-01-17 17:06:00,75.8,69.0,29.98,SSW,207,0.0,-999.0,80,-99.99,,,0.05,65,weatherlink.com 1.10,2013-01-17 22:06:00,
2013-01-17 17:21:00,74.7,69.0,29.99,SSW,207,0.0,-999.0,83,-99.99,,,0.05,23,weatherlink.com 1.10,2013-01-17 22:21:00,
2013-01-17 17:36:00,74.1,70.0,29.99,SSW,207,0.0,-999.0,86,-99.99,,,0.05,14,weatherlink.com 1.10,2013-01-17 22:36:00,
2013-01-17 17:51:00,74.1,70.0,30.00,SSW,207,0.0,-999.0,86,-99.99,,,0.05,5,weatherlink.com 1.10,2013-01-17 22:51:00,
2013-01-17 18:06:00,73.8,69.0,30.00,SSW,207,0.0,-999.0,86,-99.99,,,0.05,0,weatherlink.com 1.10,2013-01-17 23:06:00,
2013-01-17 18:21:00,73.3,69.0,30.00,SSW,207,0.0,-999.0,86,-99.99,,,0.05,0,weatherlink.com 1.10,2013-01-17 23:21:00,
2013-01-17 18:36:00,72.9,69.0,30.01,SSW,207,0.0,-999.0,86,-99.99,,,0.05,0,weatherlink.com 1.10,2013-01-17 23:36:00,
2013-01-17 18:51:00,72.3,68.0,30.02,SSW,209,0.0,-999.0,87,-99.99,,,0.05,0,weatherlink.com 1.10,2013-01-17 23:51:00,
2013-01-17 19:06:00,73.1,68.0,30.03,West,262,0.0,-999.0,83,-99.99,,,0.05,0,weatherlink.com 1.10,2013-01-18 00:06:00,
2013-01-17 19:21:00,71.9,66.0,30.04,West,271,7.0,-999.0,81,-99.99,,,0.05,0,weatherlink.com 1.10,2013-01-18 00:21:00,
2013-01-17 19:36:00,69.2,64.0,30.06,West,272,5.0,-999.0,82,-99.99,,,0.05,0,weatherlink.com 1.10,2013-01-18 00:36:00,
2013-01-17 19:51:00,66.0,61.0,30.07,West,260,3.0,-999.0,83,-99.99,,,0.05,0,weatherlink.com 1.10,2013-01-18 00:51:00,
2013-01-17 20:06:00,65.8,61.0,30.07,WSW,246,4.0,-999.0,84,-99.99,,,0.05,0,weatherlink.com 1.10,2013-01-18 01:06:00,
2013-01-17 20:21:00,65.2,60.0,30.07,West,277,1.0,-999.0,83,-99.99,,,0.05,0,weatherlink.com 1.10,2013-01-18 01:21:00,
2013-01-17 20:36:00,64.4,59.0,30.08,West,264,2.0,-999.0,83,-99.99,,,0.05,0,weatherlink.com 1.10,2013-01-18 01:36:00,
2013-01-17 20:51:00,63.4,58.0,30.08,NW,315,3.0,-999.0,82,-99.99,,,0.05,0,weatherlink.com 1.10,2013-01-18 01:51:00,
2013-01-17 21:06:00,62.8,57.0,30.09,WNW,298,5.0,-999.0,80,-99.99,,,0.05,0,weatherlink.com 1.10,2013-01-18 02:06:00,
2013-01-17 21:21:00,62.7,56.0,30.09,WNW,286,0.0,-999.0,80,-99.99,,,0.05,0,weatherlink.com 1.10,2013-01-18 02:21:00,
2013-01-17 21:36:00,62.6,56.0,30.09,WNW,290,1.0,-999.0,80,-99.99,,,0.05,0,weatherlink.com 1.10,2013-01-18 02:36:00,
2013-01-17 21:51:00,62.5,56.0,30.09,WNW,290,4.0,-999.0,80,-99.99,,,0.05,0,weatherlink.com 1.10,2013-01-18 02:51:00,
2013-01-17 22:06:00,62.4,56.0,30.09,WNW,289,1.0,-999.0,80,-99.99,,,0.05,0,weatherlink.com 1.10,2013-01-18 03:06:00,
2013-01-17 22:21:00,62.1,56.0,30.09,WNW,291,0.0,-999.0,81,-99.99,,,0.05,0,weatherlink.com 1.10,2013-01-18 03:21:00,
2013-01-17 22:36:00,61.7,56.0,30.09,West,277,3.0,-999.0,82,-99.99,,,0.05,0,weatherlink.com 1.10,2013-01-18 03:36:00,
2013-01-17 22:51:00,61.4,56.0,30.09,WNW,294,3.0,-999.0,82,-99.99,,,0.05,0,weatherlink.com 1.10,2013-01-18 03:51:00,
2013-01-17 23:06:00,61.3,55.0,30.09,NW,307,2.0,-999.0,81,-99.99,,,0.05,0,weatherlink.com 1.10,2013-01-18 04:06:00,
2013-01-17 23:21:00,61.2,55.0,30.09,NNW,341,0.0,-999.0,81,-99.99,,,0.05,0,weatherlink.com 1.10,2013-01-18 04:21:00,
2013-01-17 23:36:00,61.1,55.0,30.10,WNW,299,1.0,-999.0,80,-99.99,,,0.05,0,weatherlink.com 1.10,2013-01-18 04:36:00,
2013-01-17 23:51:00,60.8,55.0,30.10,WNW,283,2.0,-999.0,80,-99.99,,,0.05,0,weatherlink.com 1.10,2013-01-18 04:51:00,